Chulmleigh, United Kingdom
Current Conditions -  °F | °C
As of 9:20 PM on Wednesday 26 Nov 2014 (Local Time) from EGTE Reporting Station
Broken Clouds Broken Clouds  
Wind Chill: 46°   Ceiling: 2500
Heat Index: 46°   Visibility: 4mi
Dew Point: 45°   Wind: 2mph
Humidity: 93%   Direction: 320°NW
Pressure: 29.77"   Gusts: NA
Location:  50.92°N, 3.87°W
Report Text: EGTE 262120Z 32002KT 6000 BKN025 08/07 Q1008
Loading
Personal Weather Stations






























Interactive Weather Map New forecast layout! Learn more

10-Day Weather Forecast

Advertisements
Track Severe Weather on mobile